createdAt,value
2023-01-17T00:02:35.217Z,93
2023-01-17T00:06:00.600Z,93
2023-01-17T00:09:25.873Z,93
2023-01-17T00:12:51.186Z,93
2023-01-17T00:16:16.509Z,93
2023-01-17T00:19:41.780Z,93
2023-01-17T00:23:07.067Z,93
2023-01-17T00:26:32.383Z,93
2023-01-17T00:29:57.776Z,93
2023-01-17T00:33:23.088Z,93
2023-01-17T00:36:48.387Z,93
2023-01-17T00:40:13.692Z,93
2023-01-17T00:43:38.961Z,93
2023-01-17T00:47:04.280Z,93
2023-01-17T00:50:29.580Z,93
2023-01-17T00:53:54.832Z,93
2023-01-17T00:57:20.095Z,93
2023-01-17T01:00:45.497Z,93
2023-01-17T01:04:10.667Z,93
2023-01-17T01:07:35.925Z,93
2023-01-17T01:11:01.242Z,93
2023-01-17T01:14:26.596Z,93
2023-01-17T01:17:51.821Z,93
2023-01-17T01:21:17.153Z,93
2023-01-17T01:24:42.417Z,93
2023-01-17T01:28:07.724Z,93
2023-01-17T01:31:33.724Z,93
2023-01-17T01:34:59.009Z,93
2023-01-17T01:38:24.285Z,93
2023-01-17T01:41:49.583Z,93
2023-01-17T01:45:14.862Z,93
2023-01-17T01:48:40.142Z,93
2023-01-17T01:52:05.435Z,93
2023-01-17T01:55:30.740Z,93
2023-01-17T01:58:56.021Z,93
2023-01-17T02:02:21.295Z,93
2023-01-17T02:05:46.630Z,93
2023-01-17T02:09:11.944Z,93
2023-01-17T02:12:37.233Z,92
2023-01-17T02:16:02.515Z,93
2023-01-17T02:19:27.803Z,92
2023-01-17T02:22:53.114Z,92
2023-01-17T02:26:18.399Z,92
2023-01-17T02:29:43.709Z,92
2023-01-17T02:33:08.983Z,92
2023-01-17T02:36:34.299Z,92
2023-01-17T02:39:59.585Z,92
2023-01-17T02:43:24.874Z,92
2023-01-17T02:46:50.176Z,92
2023-01-17T02:50:15.422Z,92
2023-01-17T02:53:40.666Z,92
2023-01-17T02:57:05.973Z,93
2023-01-17T03:00:31.269Z,92
2023-01-17T03:03:56.524Z,92
2023-01-17T03:07:21.794Z,92
2023-01-17T03:10:47.066Z,92
2023-01-17T03:14:12.359Z,92
2023-01-17T03:17:37.645Z,92
2023-01-17T03:21:02.950Z,91
2023-01-17T03:24:28.221Z,92
2023-01-17T03:27:53.513Z,92
2023-01-17T03:31:18.797Z,92
2023-01-17T03:34:44.073Z,92
2023-01-17T03:38:09.355Z,92
2023-01-17T03:41:34.633Z,92
2023-01-17T03:44:59.908Z,92
2023-01-17T03:48:25.175Z,92
2023-01-17T03:51:50.433Z,92
2023-01-17T03:55:15.707Z,92
2023-01-17T03:58:40.937Z,92
2023-01-17T04:02:06.338Z,91
2023-01-17T04:05:31.483Z,92
2023-01-17T04:08:56.734Z,92
2023-01-17T04:12:22.016Z,91
2023-01-17T04:15:47.255Z,92
2023-01-17T04:19:12.497Z,91
2023-01-17T04:22:37.754Z,91
2023-01-17T04:26:03.000Z,91
2023-01-17T04:29:28.435Z,91
2023-01-17T04:32:53.657Z,91
2023-01-17T04:36:18.994Z,91
2023-01-17T04:39:44.718Z,91
2023-01-17T04:43:09.975Z,90
2023-01-17T04:46:35.266Z,91
2023-01-17T04:50:00.511Z,90
2023-01-17T04:53:25.758Z,90
2023-01-17T04:56:51.021Z,90
2023-01-17T05:00:16.272Z,90
2023-01-17T05:03:41.518Z,90
2023-01-17T05:07:06.754Z,90
2023-01-17T05:10:32.067Z,90
2023-01-17T05:13:57.312Z,89
2023-01-17T05:17:22.592Z,89
2023-01-17T05:20:47.956Z,89
2023-01-17T05:24:13.246Z,89
2023-01-17T05:27:38.587Z,89
2023-01-17T05:31:04.042Z,89
2023-01-17T05:34:29.253Z,89
2023-01-17T05:37:54.526Z,89
2023-01-17T05:41:19.786Z,89
2023-01-17T05:44:45.010Z,89
2023-01-17T05:48:10.321Z,90
2023-01-17T05:51:35.581Z,89
2023-01-17T05:55:00.865Z,87
2023-01-17T05:58:26.076Z,87
2023-01-17T06:01:51.325Z,87
2023-01-17T06:05:16.583Z,87
2023-01-17T06:08:41.835Z,88
2023-01-17T06:12:07.122Z,88
2023-01-17T06:15:32.413Z,88
2023-01-17T06:18:57.746Z,87
2023-01-17T06:22:23.207Z,87
2023-01-17T06:25:48.639Z,86
2023-01-17T06:29:13.934Z,85
2023-01-17T06:32:39.186Z,84
2023-01-17T06:36:04.468Z,85
2023-01-17T06:39:29.737Z,85
2023-01-17T06:42:54.978Z,86
2023-01-17T06:46:20.284Z,86
2023-01-17T06:49:45.489Z,87
2023-01-17T06:53:10.755Z,86
2023-01-17T06:56:35.984Z,85
2023-01-17T07:00:01.234Z,86
2023-01-17T07:03:26.524Z,85
2023-01-17T07:06:51.746Z,84
2023-01-17T07:10:17.016Z,85
2023-01-17T07:13:42.267Z,84
2023-01-17T07:17:07.521Z,85
2023-01-17T07:20:32.784Z,84
2023-01-17T07:23:58.035Z,84
2023-01-17T07:27:23.311Z,83
2023-01-17T07:30:48.574Z,83
2023-01-17T07:34:13.802Z,83
2023-01-17T07:37:39.123Z,83
2023-01-17T07:41:04.345Z,83
2023-01-17T07:44:29.602Z,82
2023-01-17T07:47:54.865Z,83
2023-01-17T07:51:20.133Z,82
2023-01-17T07:54:45.405Z,82
2023-01-17T07:58:10.661Z,83
2023-01-17T08:01:36.070Z,83
2023-01-17T08:05:01.183Z,82
2023-01-17T08:08:26.441Z,82
2023-01-17T08:11:51.740Z,83
2023-01-17T08:15:17.117Z,83
2023-01-17T08:18:42.464Z,84
2023-01-17T08:22:07.770Z,81
2023-01-17T08:25:33.090Z,83
2023-01-17T08:28:58.352Z,80
2023-01-17T08:32:23.643Z,80
2023-01-17T08:35:49.615Z,80
2023-01-17T08:39:14.859Z,81
2023-01-17T08:42:40.670Z,81
2023-01-17T08:46:06.049Z,81
2023-01-17T08:49:32.164Z,82
2023-01-17T08:52:58.367Z,82
2023-01-17T08:56:22.667Z,80
2023-01-17T08:59:47.969Z,80
2023-01-17T09:03:13.337Z,81
2023-01-17T09:06:38.539Z,80
2023-01-17T09:10:03.768Z,80
2023-01-17T09:13:29.007Z,80
2023-01-17T09:16:54.354Z,80
2023-01-17T09:20:19.559Z,81
2023-01-17T09:23:44.820Z,81
2023-01-17T09:27:10.067Z,80
2023-01-17T09:30:35.366Z,80
2023-01-17T09:34:00.628Z,79
2023-01-17T09:37:25.988Z,79
2023-01-17T09:40:51.229Z,79
2023-01-17T09:44:16.557Z,77
2023-01-17T09:47:41.898Z,78
2023-01-17T09:51:07.209Z,78
2023-01-17T09:54:32.558Z,78
2023-01-17T09:57:57.811Z,77
2023-01-17T10:01:23.343Z,77
2023-01-17T10:04:48.403Z,77
2023-01-17T10:08:13.722Z,77
2023-01-17T10:11:39.023Z,75
2023-01-17T10:15:04.299Z,76
2023-01-17T10:18:30.564Z,76
2023-01-17T10:21:54.823Z,76
2023-01-17T10:25:20.095Z,76
2023-01-17T10:28:45.466Z,75
2023-01-17T10:32:10.772Z,76
2023-01-17T10:35:36.145Z,75
2023-01-17T10:39:01.434Z,75
2023-01-17T10:42:26.740Z,75
2023-01-17T10:45:52.113Z,75
2023-01-17T10:49:17.326Z,75
2023-01-17T10:52:42.685Z,75
2023-01-17T10:56:07.999Z,75
2023-01-17T10:59:33.250Z,76
2023-01-17T11:02:58.558Z,76
2023-01-17T11:06:25.187Z,76
2023-01-17T11:09:50.443Z,76
2023-01-17T11:13:15.670Z,77
2023-01-17T11:16:40.944Z,76
2023-01-17T11:20:06.247Z,76
2023-01-17T11:23:31.497Z,75
2023-01-17T11:26:56.755Z,76
2023-01-17T11:30:22.028Z,76
2023-01-17T11:33:47.251Z,75
2023-01-17T11:37:12.540Z,72
2023-01-17T11:40:37.767Z,72
2023-01-17T11:44:03.035Z,73
2023-01-17T11:47:28.320Z,73
2023-01-17T11:50:53.611Z,74
2023-01-17T11:54:18.914Z,74
2023-01-17T11:57:44.160Z,74
2023-01-17T12:01:09.519Z,73
2023-01-17T12:04:36.441Z,75
2023-01-17T12:07:59.987Z,73
2023-01-17T12:11:25.274Z,70
2023-01-17T12:14:50.488Z,72
2023-01-17T12:18:15.728Z,70
2023-01-17T12:21:40.985Z,70
2023-01-17T12:25:06.288Z,70
2023-01-17T12:28:31.622Z,71
2023-01-17T12:31:56.861Z,71
2023-01-17T12:35:22.136Z,68
2023-01-17T12:38:47.386Z,68
2023-01-17T12:42:12.891Z,68
2023-01-17T12:45:38.225Z,69
2023-01-17T12:49:03.477Z,70
2023-01-17T12:52:28.731Z,70
2023-01-17T12:55:53.993Z,69
2023-01-17T12:59:19.230Z,68
2023-01-17T13:02:44.535Z,70
2023-01-17T13:06:09.760Z,69
2023-01-17T13:09:35.020Z,69
2023-01-17T13:13:00.293Z,70
2023-01-17T13:16:25.600Z,69
2023-01-17T13:19:50.852Z,71
2023-01-17T13:23:16.101Z,69
2023-01-17T13:26:41.401Z,71
2023-01-17T13:30:06.684Z,70
2023-01-17T13:33:31.947Z,70
2023-01-17T13:36:57.233Z,68
2023-01-17T13:40:22.493Z,67
2023-01-17T13:43:47.722Z,68
2023-01-17T13:47:12.989Z,70
2023-01-17T13:50:38.255Z,67
2023-01-17T13:54:05.287Z,66
2023-01-17T13:57:29.813Z,67
2023-01-17T14:00:54.113Z,66
2023-01-17T14:04:19.323Z,66
2023-01-17T14:07:44.568Z,65
2023-01-17T14:11:10.101Z,66
2023-01-17T14:14:35.102Z,66
2023-01-17T14:18:00.351Z,65
2023-01-17T14:21:25.589Z,66
2023-01-17T14:24:50.822Z,66
2023-01-17T14:28:16.139Z,66
2023-01-17T15:05:48.898Z,71
2023-01-17T15:09:14.151Z,72
2023-01-17T15:12:39.385Z,71
2023-01-17T15:16:04.630Z,72
2023-01-17T15:19:29.865Z,72
2023-01-17T15:22:55.418Z,72
2023-01-17T15:26:20.649Z,74
2023-01-17T15:29:45.967Z,74
2023-01-17T15:33:11.346Z,74
2023-01-17T15:36:36.604Z,73
2023-01-17T15:40:01.923Z,73
2023-01-17T15:43:27.099Z,71
2023-01-17T15:46:52.342Z,71
2023-01-17T15:50:17.589Z,72
2023-01-17T15:53:42.828Z,72
2023-01-17T15:57:08.091Z,71
2023-01-17T16:00:33.311Z,72
2023-01-17T16:03:59.388Z,73
2023-01-17T16:07:24.669Z,72
2023-01-17T16:11:13.873Z,72
2023-01-17T16:14:53.765Z,73
2023-01-17T16:18:04.660Z,72
2023-01-17T16:21:30.062Z,74
2023-01-17T16:24:55.400Z,75
2023-01-17T16:28:20.728Z,74
2023-01-17T16:31:46.079Z,73
2023-01-17T16:35:11.426Z,72
2023-01-17T16:38:36.839Z,72
2023-01-17T16:42:02.089Z,71
2023-01-17T16:45:27.397Z,71
2023-01-17T16:48:52.793Z,71
2023-01-17T16:52:18.082Z,70
2023-01-17T16:55:43.488Z,70
2023-01-17T16:59:08.865Z,69
2023-01-17T17:02:34.187Z,70
2023-01-17T17:05:59.525Z,73
2023-01-17T17:09:24.837Z,74
2023-01-17T17:12:50.106Z,73
2023-01-17T17:16:15.685Z,74
2023-01-17T17:19:40.997Z,74
2023-01-17T17:23:06.311Z,75
2023-01-17T17:26:31.636Z,72
2023-01-17T17:29:56.988Z,73
2023-01-17T17:33:22.289Z,75
2023-01-17T17:36:47.644Z,73
2023-01-17T17:40:13.015Z,73
2023-01-17T17:43:38.311Z,74
2023-01-17T17:47:03.659Z,74
2023-01-17T17:50:28.934Z,76
2023-01-17T17:53:54.192Z,76
2023-01-17T17:57:19.476Z,76
2023-01-17T18:00:44.716Z,76
2023-01-17T18:04:09.960Z,77
2023-01-17T18:07:35.329Z,77
2023-01-17T18:11:00.617Z,75
2023-01-17T18:14:25.913Z,76
2023-01-17T18:17:51.295Z,75
2023-01-17T18:21:16.604Z,75
2023-01-17T18:24:41.891Z,74
2023-01-17T18:28:07.233Z,75
2023-01-17T18:31:32.615Z,76
2023-01-17T18:34:57.794Z,77
2023-01-17T18:38:23.106Z,76
2023-01-17T18:41:48.386Z,76
2023-01-17T18:45:13.653Z,77
2023-01-17T18:48:38.958Z,75
2023-01-17T18:52:04.254Z,76
2023-01-17T18:55:29.600Z,77
2023-01-17T18:58:54.928Z,76
2023-01-17T19:02:20.203Z,77
2023-01-17T19:05:45.503Z,77
2023-01-17T19:09:10.738Z,76
2023-01-17T19:12:36.068Z,74
2023-01-17T19:16:01.343Z,75
2023-01-17T19:19:26.611Z,73
2023-01-17T19:22:51.899Z,72
2023-01-17T19:26:17.188Z,74
2023-01-17T19:29:42.430Z,72
2023-01-17T19:33:07.710Z,72
2023-01-17T19:36:32.975Z,71
2023-01-17T19:39:58.254Z,71
2023-01-17T19:43:23.532Z,71
2023-01-17T19:46:48.780Z,70
2023-01-17T19:50:14.032Z,70
2023-01-17T19:53:39.288Z,73
2023-01-17T19:57:04.593Z,72
2023-01-17T20:00:30.432Z,76
2023-01-17T20:03:57.569Z,76
2023-01-17T20:07:20.449Z,75
2023-01-17T20:10:47.229Z,75
2023-01-17T20:14:11.025Z,75
2023-01-17T20:17:36.228Z,75
2023-01-17T20:21:01.544Z,76
2023-01-17T20:24:26.764Z,75
2023-01-17T20:27:52.035Z,76
2023-01-17T20:31:17.372Z,76
2023-01-17T20:34:44.664Z,76
2023-01-17T20:38:07.735Z,76
2023-01-17T20:41:33.021Z,76
2023-01-17T20:44:58.279Z,76
2023-01-17T20:48:23.547Z,74
2023-01-17T20:51:48.806Z,76
2023-01-17T20:55:14.020Z,75
2023-01-17T20:58:39.274Z,73
2023-01-17T21:02:04.767Z,72
2023-01-17T21:05:29.824Z,71
2023-01-17T21:08:55.023Z,71
2023-01-17T21:12:20.282Z,71
2023-01-17T21:15:45.531Z,70
2023-01-17T21:19:10.793Z,70
2023-01-17T21:22:36.030Z,71
2023-01-17T21:26:01.277Z,71
2023-01-17T21:29:26.544Z,70
2023-01-17T21:32:51.807Z,71
2023-01-17T21:36:17.082Z,71
2023-01-17T21:39:42.339Z,71
2023-01-17T21:43:07.594Z,70
2023-01-17T21:46:32.871Z,71
2023-01-17T21:49:58.135Z,71
2023-01-17T21:53:23.443Z,71
2023-01-17T21:56:48.752Z,70
2023-01-17T22:00:13.924Z,71
2023-01-17T22:03:39.195Z,72
2023-01-17T22:07:04.432Z,71
2023-01-17T22:10:29.702Z,72
2023-01-17T22:13:55.989Z,71
2023-01-17T22:17:20.192Z,70
2023-01-17T22:20:45.464Z,70
2023-01-17T22:24:10.707Z,69
2023-01-17T22:27:35.950Z,69
2023-01-17T22:31:01.293Z,69
2023-01-17T22:34:26.487Z,68
2023-01-17T22:37:51.740Z,69
2023-01-17T22:41:16.984Z,69
2023-01-17T22:44:42.229Z,69
2023-01-17T22:48:07.617Z,70
2023-01-17T22:51:32.844Z,70
2023-01-17T22:54:58.094Z,70
2023-01-17T22:58:23.330Z,71
2023-01-17T23:01:48.557Z,71
2023-01-17T23:05:13.847Z,71
2023-01-17T23:08:39.918Z,71
2023-01-17T23:12:05.139Z,71
2023-01-17T23:15:30.387Z,71
2023-01-17T23:18:55.603Z,70
2023-01-17T23:22:20.912Z,71
2023-01-17T23:25:46.097Z,71
2023-01-17T23:29:11.371Z,71
2023-01-17T23:32:36.654Z,71
2023-01-17T23:36:01.940Z,72
2023-01-17T23:39:28.547Z,71
2023-01-17T23:42:52.407Z,72
2023-01-17T23:46:17.693Z,71
2023-01-17T23:49:42.885Z,70
2023-01-17T23:53:08.153Z,71
2023-01-17T23:56:33.404Z,70
2023-01-17T23:59:58.611Z,71
